Terminal Aerodrome Forecast
Issued by NWS

Home | Current Version | Previous Version | Text Only | Print | Product List | Glossary On
Versions: 1 2 3 4 5 6 7 8 9 10 11 12 13 14 15 16 17 18 19 20 21 22 23 24 25 26 27 28 29 30 31 32 33 34 35 36 37 38
000
FTUS43 KDMX 061120
TAFFOD
TAF
KFOD 061120Z 0612/0712 18009KT P6SM SKC
     FM061700 26010KT P6SM SCT100
     FM070200 20006KT P6SM SCT080
     FM070600 23008KT P6SM BKN080
     FM071100 29009KT P6SM OVC070=

USA.gov is the U.S. government's official web portal to all federal, state and local government web resources and services.